sensor_id;sensor_type;location;lat;lon;timestamp;P1;durP1;ratioP1;P2;durP2;ratioP2
9413;SDS011;4746;35.664;139.738;2023-04-25T00:01:32;8.90;;;6.90;;
9413;SDS011;4746;35.664;139.738;2023-04-25T00:04:01;8.93;;;7.13;;
9413;SDS011;4746;35.664;139.738;2023-04-25T00:06:31;9.37;;;7.37;;
9413;SDS011;4746;35.664;139.738;2023-04-25T00:09:03;7.57;;;6.37;;
9413;SDS011;4746;35.664;139.738;2023-04-25T00:11:36;12.37;;;7.73;;
9413;SDS011;4746;35.664;139.738;2023-04-25T00:14:04;7.57;;;6.80;;
9413;SDS011;4746;35.664;139.738;2023-04-25T00:16:32;8.47;;;7.67;;
9413;SDS011;4746;35.664;139.738;2023-04-25T00:19:01;7.77;;;6.93;;
9413;SDS011;4746;35.664;139.738;2023-04-25T00:21:29;7.37;;;6.60;;
9413;SDS011;4746;35.664;139.738;2023-04-25T00:23:57;8.90;;;7.13;;
9413;SDS011;4746;35.664;139.738;2023-04-25T00:26:30;8.73;;;6.40;;
9413;SDS011;4746;35.664;139.738;2023-04-25T00:28:59;7.40;;;6.47;;
9413;SDS011;4746;35.664;139.738;2023-04-25T00:31:26;7.63;;;6.93;;
9413;SDS011;4746;35.664;139.738;2023-04-25T00:33:54;8.50;;;6.77;;
9413;SDS011;4746;35.664;139.738;2023-04-25T00:36:24;7.87;;;7.07;;
9413;SDS011;4746;35.664;139.738;2023-04-25T00:38:53;7.00;;;6.33;;
9413;SDS011;4746;35.664;139.738;2023-04-25T00:41:21;7.90;;;7.07;;
9413;SDS011;4746;35.664;139.738;2023-04-25T00:43:51;7.50;;;6.80;;
9413;SDS011;4746;35.664;139.738;2023-04-25T00:46:21;7.83;;;6.83;;
9413;SDS011;4746;35.664;139.738;2023-04-25T00:48:49;7.63;;;6.87;;
9413;SDS011;4746;35.664;139.738;2023-04-25T00:51:19;9.87;;;6.77;;
9413;SDS011;4746;35.664;139.738;2023-04-25T00:53:48;6.97;;;5.90;;
9413;SDS011;4746;35.664;139.738;2023-04-25T00:56:17;9.50;;;6.70;;
9413;SDS011;4746;35.664;139.738;2023-04-25T00:58:45;9.00;;;6.33;;
9413;SDS011;4746;35.664;139.738;2023-04-25T01:01:13;8.20;;;5.97;;
9413;SDS011;4746;35.664;139.738;2023-04-25T01:03:41;9.10;;;6.87;;
9413;SDS011;4746;35.664;139.738;2023-04-25T01:06:12;7.77;;;6.20;;
9413;SDS011;4746;35.664;139.738;2023-04-25T01:08:40;6.93;;;6.23;;
9413;SDS011;4746;35.664;139.738;2023-04-25T01:11:07;8.73;;;5.70;;
9413;SDS011;4746;35.664;139.738;2023-04-25T01:13:35;7.33;;;6.60;;
9413;SDS011;4746;35.664;139.738;2023-04-25T01:16:02;7.77;;;6.50;;
9413;SDS011;4746;35.664;139.738;2023-04-25T01:18:30;8.80;;;6.70;;
9413;SDS011;4746;35.664;139.738;2023-04-25T01:21:06;9.67;;;7.07;;
9413;SDS011;4746;35.664;139.738;2023-04-25T01:23:38;7.50;;;6.67;;
9413;SDS011;4746;35.664;139.738;2023-04-25T01:26:10;7.70;;;6.83;;
9413;SDS011;4746;35.664;139.738;2023-04-25T01:28:39;12.00;;;7.53;;
9413;SDS011;4746;35.664;139.738;2023-04-25T01:31:07;7.57;;;6.73;;
9413;SDS011;4746;35.664;139.738;2023-04-25T01:33:35;8.13;;;7.00;;
9413;SDS011;4746;35.664;139.738;2023-04-25T01:36:03;9.90;;;7.50;;
9413;SDS011;4746;35.664;139.738;2023-04-25T01:38:31;11.33;;;7.60;;
9413;SDS011;4746;35.664;139.738;2023-04-25T01:40:59;9.77;;;6.77;;
9413;SDS011;4746;35.664;139.738;2023-04-25T01:43:27;8.97;;;7.53;;
9413;SDS011;4746;35.664;139.738;2023-04-25T01:45:55;9.60;;;7.73;;
9413;SDS011;4746;35.664;139.738;2023-04-25T01:48:23;10.77;;;6.93;;
9413;SDS011;4746;35.664;139.738;2023-04-25T01:50:50;9.67;;;7.50;;
9413;SDS011;4746;35.664;139.738;2023-04-25T01:53:18;9.07;;;6.50;;
9413;SDS011;4746;35.664;139.738;2023-04-25T01:55:45;10.67;;;7.70;;
9413;SDS011;4746;35.664;139.738;2023-04-25T01:58:13;8.70;;;6.90;;
9413;SDS011;4746;35.664;139.738;2023-04-25T02:00:40;8.17;;;7.03;;
9413;SDS011;4746;35.664;139.738;2023-04-25T02:03:08;8.57;;;6.57;;
9413;SDS011;4746;35.664;139.738;2023-04-25T02:05:36;6.67;;;5.83;;
9413;SDS011;4746;35.664;139.738;2023-04-25T02:08:05;6.07;;;5.50;;
9413;SDS011;4746;35.664;139.738;2023-04-25T02:10:34;12.57;;;6.77;;
9413;SDS011;4746;35.664;139.738;2023-04-25T02:13:03;7.80;;;6.17;;
9413;SDS011;4746;35.664;139.738;2023-04-25T02:15:30;9.03;;;5.53;;
9413;SDS011;4746;35.664;139.738;2023-04-25T02:17:58;10.23;;;5.73;;
9413;SDS011;4746;35.664;139.738;2023-04-25T02:20:26;4.93;;;4.50;;
9413;SDS011;4746;35.664;139.738;2023-04-25T02:22:56;6.60;;;4.70;;
9413;SDS011;4746;35.664;139.738;2023-04-25T02:25:23;6.97;;;5.60;;
9413;SDS011;4746;35.664;139.738;2023-04-25T02:27:51;9.75;;;5.75;;
9413;SDS011;4746;35.664;139.738;2023-04-25T02:30:19;8.23;;;5.25;;
9413;SDS011;4746;35.664;139.738;2023-04-25T02:32:46;9.20;;;4.65;;
9413;SDS011;4746;35.664;139.738;2023-04-25T02:35:16;6.45;;;4.30;;
9413;SDS011;4746;35.664;139.738;2023-04-25T02:37:44;4.88;;;3.67;;
9413;SDS011;4746;35.664;139.738;2023-04-25T02:40:11;6.30;;;4.03;;
9413;SDS011;4746;35.664;139.738;2023-04-25T02:42:39;6.50;;;3.80;;
9413;SDS011;4746;35.664;139.738;2023-04-25T02:45:06;7.68;;;4.93;;
9413;SDS011;4746;35.664;139.738;2023-04-25T02:47:35;7.20;;;4.40;;
9413;SDS011;4746;35.664;139.738;2023-04-25T02:50:02;5.72;;;4.45;;
9413;SDS011;4746;35.664;139.738;2023-04-25T02:52:30;7.90;;;4.32;;
9413;SDS011;4746;35.664;139.738;2023-04-25T02:54:58;8.40;;;4.32;;
9413;SDS011;4746;35.664;139.738;2023-04-25T02:57:25;6.88;;;4.68;;
9413;SDS011;4746;35.664;139.738;2023-04-25T02:59:53;5.38;;;3.80;;
9413;SDS011;4746;35.664;139.738;2023-04-25T03:02:20;8.25;;;4.10;;
9413;SDS011;4746;35.664;139.738;2023-04-25T03:04:48;6.00;;;3.60;;
9413;SDS011;4746;35.664;139.738;2023-04-25T03:07:15;7.38;;;4.10;;
9413;SDS011;4746;35.664;139.738;2023-04-25T03:09:43;5.80;;;3.85;;
9413;SDS011;4746;35.664;139.738;2023-04-25T03:12:10;6.07;;;3.75;;
9413;SDS011;4746;35.664;139.738;2023-04-25T03:14:38;4.85;;;3.88;;
9413;SDS011;4746;35.664;139.738;2023-04-25T03:17:05;5.30;;;3.95;;
9413;SDS011;4746;35.664;139.738;2023-04-25T03:19:33;5.28;;;4.30;;
9413;SDS011;4746;35.664;139.738;2023-04-25T03:22:00;9.40;;;4.43;;
9413;SDS011;4746;35.664;139.738;2023-04-25T03:24:28;4.68;;;3.92;;
9413;SDS011;4746;35.664;139.738;2023-04-25T03:26:55;4.50;;;4.07;;
9413;SDS011;4746;35.664;139.738;2023-04-25T03:29:23;4.65;;;3.80;;
9413;SDS011;4746;35.664;139.738;2023-04-25T03:31:51;6.80;;;4.40;;
9413;SDS011;4746;35.664;139.738;2023-04-25T03:34:19;6.18;;;3.78;;
9413;SDS011;4746;35.664;139.738;2023-04-25T03:36:47;4.27;;;3.30;;
9413;SDS011;4746;35.664;139.738;2023-04-25T03:39:14;5.93;;;4.20;;
9413;SDS011;4746;35.664;139.738;2023-04-25T03:41:42;6.35;;;4.30;;
9413;SDS011;4746;35.664;139.738;2023-04-25T03:44:09;5.07;;;4.20;;
9413;SDS011;4746;35.664;139.738;2023-04-25T03:46:37;4.83;;;4.30;;
9413;SDS011;4746;35.664;139.738;2023-04-25T03:49:04;5.50;;;3.80;;
9413;SDS011;4746;35.664;139.738;2023-04-25T03:51:32;5.90;;;4.20;;
9413;SDS011;4746;35.664;139.738;2023-04-25T03:53:59;4.60;;;4.20;;
9413;SDS011;4746;35.664;139.738;2023-04-25T03:56:27;4.57;;;4.17;;
9413;SDS011;4746;35.664;139.738;2023-04-25T03:58:55;6.53;;;4.33;;
9413;SDS011;4746;35.664;139.738;2023-04-25T04:01:23;9.37;;;4.93;;
9413;SDS011;4746;35.664;139.738;2023-04-25T04:03:50;7.33;;;4.53;;
9413;SDS011;4746;35.664;139.738;2023-04-25T04:06:18;6.83;;;4.50;;
9413;SDS011;4746;35.664;139.738;2023-04-25T04:08:46;5.93;;;4.43;;
9413;SDS011;4746;35.664;139.738;2023-04-25T04:11:13;9.10;;;4.53;;
9413;SDS011;4746;35.664;139.738;2023-04-25T04:13:41;6.77;;;4.83;;
9413;SDS011;4746;35.664;139.738;2023-04-25T04:16:08;7.17;;;4.03;;
9413;SDS011;4746;35.664;139.738;2023-04-25T04:18:36;8.50;;;4.43;;
9413;SDS011;4746;35.664;139.738;2023-04-25T04:21:04;7.50;;;4.67;;
9413;SDS011;4746;35.664;139.738;2023-04-25T04:23:31;7.97;;;4.73;;
9413;SDS011;4746;35.664;139.738;2023-04-25T04:25:59;8.87;;;5.50;;
9413;SDS011;4746;35.664;139.738;2023-04-25T04:28:26;10.40;;;5.00;;
9413;SDS011;4746;35.664;139.738;2023-04-25T04:30:54;11.23;;;4.83;;
9413;SDS011;4746;35.664;139.738;2023-04-25T04:33:21;13.83;;;5.60;;
9413;SDS011;4746;35.664;139.738;2023-04-25T04:35:50;9.53;;;5.33;;
9413;SDS011;4746;35.664;139.738;2023-04-25T04:38:18;9.47;;;4.50;;
9413;SDS011;4746;35.664;139.738;2023-04-25T04:40:47;6.80;;;3.80;;
9413;SDS011;4746;35.664;139.738;2023-04-25T04:43:15;7.10;;;4.00;;
9413;SDS011;4746;35.664;139.738;2023-04-25T04:45:44;11.37;;;4.77;;
9413;SDS011;4746;35.664;139.738;2023-04-25T04:48:11;7.27;;;4.57;;
9413;SDS011;4746;35.664;139.738;2023-04-25T04:50:39;7.60;;;5.20;;
9413;SDS011;4746;35.664;139.738;2023-04-25T04:53:10;11.07;;;5.13;;
9413;SDS011;4746;35.664;139.738;2023-04-25T04:55:37;7.53;;;4.50;;
9413;SDS011;4746;35.664;139.738;2023-04-25T04:58:06;14.57;;;5.37;;
9413;SDS011;4746;35.664;139.738;2023-04-25T05:00:34;10.53;;;4.70;;
9413;SDS011;4746;35.664;139.738;2023-04-25T05:03:02;11.93;;;5.03;;
9413;SDS011;4746;35.664;139.738;2023-04-25T05:05:30;8.77;;;5.30;;
9413;SDS011;4746;35.664;139.738;2023-04-25T05:07:58;7.03;;;4.83;;
9413;SDS011;4746;35.664;139.738;2023-04-25T05:10:25;5.93;;;4.50;;
9413;SDS011;4746;35.664;139.738;2023-04-25T05:12:53;7.00;;;4.50;;
9413;SDS011;4746;35.664;139.738;2023-04-25T05:15:20;5.90;;;4.60;;
9413;SDS011;4746;35.664;139.738;2023-04-25T05:17:48;6.27;;;4.30;;
9413;SDS011;4746;35.664;139.738;2023-04-25T05:20:16;13.50;;;5.30;;
9413;SDS011;4746;35.664;139.738;2023-04-25T05:22:44;10.20;;;5.40;;
9413;SDS011;4746;35.664;139.738;2023-04-25T05:25:11;10.00;;;5.23;;
9413;SDS011;4746;35.664;139.738;2023-04-25T05:27:39;10.60;;;4.37;;
9413;SDS011;4746;35.664;139.738;2023-04-25T05:30:07;11.57;;;5.53;;
9413;SDS011;4746;35.664;139.738;2023-04-25T05:32:35;9.00;;;4.73;;
9413;SDS011;4746;35.664;139.738;2023-04-25T05:35:02;7.27;;;5.07;;
9413;SDS011;4746;35.664;139.738;2023-04-25T05:37:32;10.07;;;4.80;;
9413;SDS011;4746;35.664;139.738;2023-04-25T05:39:59;6.37;;;4.47;;
9413;SDS011;4746;35.664;139.738;2023-04-25T05:42:32;9.53;;;5.23;;
9413;SDS011;4746;35.664;139.738;2023-04-25T05:44:59;10.77;;;5.43;;
9413;SDS011;4746;35.664;139.738;2023-04-25T05:47:27;6.57;;;4.93;;
9413;SDS011;4746;35.664;139.738;2023-04-25T05:49:55;10.70;;;4.90;;
9413;SDS011;4746;35.664;139.738;2023-04-25T05:52:22;7.47;;;5.10;;
9413;SDS011;4746;35.664;139.738;2023-04-25T05:54:50;12.63;;;5.53;;
9413;SDS011;4746;35.664;139.738;2023-04-25T05:59:53;9.23;;;5.53;;
9413;SDS011;4746;35.664;139.738;2023-04-25T06:02:20;11.40;;;5.20;;
9413;SDS011;4746;35.664;139.738;2023-04-25T06:04:51;12.70;;;5.20;;
9413;SDS011;4746;35.664;139.738;2023-04-25T06:07:19;8.43;;;4.83;;
9413;SDS011;4746;35.664;139.738;2023-04-25T06:09:46;6.83;;;4.67;;
9413;SDS011;4746;35.664;139.738;2023-04-25T06:12:14;6.47;;;4.70;;
9413;SDS011;4746;35.664;139.738;2023-04-25T06:14:42;7.33;;;4.90;;
9413;SDS011;4746;35.664;139.738;2023-04-25T06:17:09;9.77;;;4.83;;
9413;SDS011;4746;35.664;139.738;2023-04-25T06:19:37;10.50;;;5.40;;
9413;SDS011;4746;35.664;139.738;2023-04-25T06:22:04;9.57;;;5.33;;
9413;SDS011;4746;35.664;139.738;2023-04-25T06:24:33;6.20;;;5.10;;
9413;SDS011;4746;35.664;139.738;2023-04-25T06:27:00;9.00;;;5.20;;
9413;SDS011;4746;35.664;139.738;2023-04-25T06:29:28;6.63;;;4.27;;
9413;SDS011;4746;35.664;139.738;2023-04-25T06:31:55;5.57;;;4.90;;
9413;SDS011;4746;35.664;139.738;2023-04-25T06:34:23;9.30;;;5.60;;
9413;SDS011;4746;35.664;139.738;2023-04-25T06:36:50;8.03;;;4.77;;
9413;SDS011;4746;35.664;139.738;2023-04-25T06:39:18;6.30;;;4.93;;
9413;SDS011;4746;35.664;139.738;2023-04-25T06:41:45;6.77;;;5.30;;
9413;SDS011;4746;35.664;139.738;2023-04-25T06:44:13;7.40;;;4.90;;
9413;SDS011;4746;35.664;139.738;2023-04-25T06:46:40;6.43;;;5.30;;
9413;SDS011;4746;35.664;139.738;2023-04-25T06:49:08;9.27;;;5.27;;
9413;SDS011;4746;35.664;139.738;2023-04-25T06:51:35;6.20;;;5.23;;
9413;SDS011;4746;35.664;139.738;2023-04-25T06:54:03;6.03;;;4.90;;
9413;SDS011;4746;35.664;139.738;2023-04-25T06:56:31;5.73;;;5.07;;
9413;SDS011;4746;35.664;139.738;2023-04-25T06:58:59;8.17;;;4.87;;
9413;SDS011;4746;35.664;139.738;2023-04-25T07:01:26;5.50;;;4.57;;
9413;SDS011;4746;35.664;139.738;2023-04-25T07:03:53;7.90;;;4.70;;
9413;SDS011;4746;35.664;139.738;2023-04-25T07:06:21;6.70;;;5.17;;
9413;SDS011;4746;35.664;139.738;2023-04-25T07:08:48;6.30;;;4.60;;
9413;SDS011;4746;35.664;139.738;2023-04-25T07:11:16;5.90;;;4.73;;
9413;SDS011;4746;35.664;139.738;2023-04-25T07:13:43;8.93;;;4.83;;
9413;SDS011;4746;35.664;139.738;2023-04-25T07:16:11;6.10;;;4.63;;
9413;SDS011;4746;35.664;139.738;2023-04-25T07:18:38;8.97;;;5.17;;
9413;SDS011;4746;35.664;139.738;2023-04-25T07:21:06;5.23;;;4.37;;
9413;SDS011;4746;35.664;139.738;2023-04-25T07:23:33;7.47;;;4.40;;
9413;SDS011;4746;35.664;139.738;2023-04-25T07:26:01;8.73;;;4.77;;
9413;SDS011;4746;35.664;139.738;2023-04-25T07:28:28;5.53;;;4.60;;
9413;SDS011;4746;35.664;139.738;2023-04-25T07:30:56;6.83;;;4.67;;
9413;SDS011;4746;35.664;139.738;2023-04-25T07:33:24;9.10;;;5.33;;
9413;SDS011;4746;35.664;139.738;2023-04-25T07:35:53;10.57;;;5.63;;
9413;SDS011;4746;35.664;139.738;2023-04-25T07:38:21;10.77;;;4.60;;
9413;SDS011;4746;35.664;139.738;2023-04-25T07:40:49;8.10;;;4.77;;
9413;SDS011;4746;35.664;139.738;2023-04-25T07:43:16;6.70;;;4.63;;
9413;SDS011;4746;35.664;139.738;2023-04-25T07:45:44;9.50;;;4.80;;
9413;SDS011;4746;35.664;139.738;2023-04-25T07:48:21;8.97;;;5.63;;
9413;SDS011;4746;35.664;139.738;2023-04-25T07:50:48;8.83;;;5.23;;
9413;SDS011;4746;35.664;139.738;2023-04-25T07:53:16;6.07;;;5.00;;
9413;SDS011;4746;35.664;139.738;2023-04-25T07:55:44;7.83;;;4.63;;
9413;SDS011;4746;35.664;139.738;2023-04-25T07:58:11;7.40;;;5.20;;
9413;SDS011;4746;35.664;139.738;2023-04-25T08:00:40;7.60;;;5.47;;
9413;SDS011;4746;35.664;139.738;2023-04-25T08:03:09;10.73;;;5.53;;
9413;SDS011;4746;35.664;139.738;2023-04-25T08:05:37;6.23;;;5.17;;
9413;SDS011;4746;35.664;139.738;2023-04-25T08:08:04;5.00;;;4.47;;
9413;SDS011;4746;35.664;139.738;2023-04-25T08:10:32;10.83;;;5.27;;
9413;SDS011;4746;35.664;139.738;2023-04-25T08:13:00;7.47;;;5.00;;
9413;SDS011;4746;35.664;139.738;2023-04-25T08:15:28;4.80;;;4.40;;
9413;SDS011;4746;35.664;139.738;2023-04-25T08:17:56;5.23;;;4.70;;
9413;SDS011;4746;35.664;139.738;2023-04-25T08:20:24;5.13;;;4.33;;
9413;SDS011;4746;35.664;139.738;2023-04-25T08:22:52;4.70;;;4.30;;
9413;SDS011;4746;35.664;139.738;2023-04-25T08:25:20;5.90;;;4.53;;
9413;SDS011;4746;35.664;139.738;2023-04-25T08:27:47;7.47;;;5.00;;
9413;SDS011;4746;35.664;139.738;2023-04-25T08:30:15;5.70;;;5.13;;
9413;SDS011;4746;35.664;139.738;2023-04-25T08:32:42;7.47;;;5.17;;
9413;SDS011;4746;35.664;139.738;2023-04-25T08:35:10;8.23;;;4.97;;
9413;SDS011;4746;35.664;139.738;2023-04-25T08:37:37;8.07;;;5.00;;
9413;SDS011;4746;35.664;139.738;2023-04-25T08:40:05;7.30;;;4.93;;
9413;SDS011;4746;35.664;139.738;2023-04-25T08:42:40;6.60;;;4.43;;
9413;SDS011;4746;35.664;139.738;2023-04-25T08:45:09;4.57;;;4.17;;
9413;SDS011;4746;35.664;139.738;2023-04-25T08:47:37;7.43;;;5.30;;
9413;SDS011;4746;35.664;139.738;2023-04-25T08:50:06;5.30;;;4.77;;
9413;SDS011;4746;35.664;139.738;2023-04-25T08:52:40;6.57;;;4.73;;
9413;SDS011;4746;35.664;139.738;2023-04-25T08:55:12;8.80;;;5.27;;
9413;SDS011;4746;35.664;139.738;2023-04-25T08:57:40;5.83;;;4.50;;
9413;SDS011;4746;35.664;139.738;2023-04-25T09:00:09;5.50;;;4.77;;
9413;SDS011;4746;35.664;139.738;2023-04-25T09:02:39;5.33;;;4.50;;
9413;SDS011;4746;35.664;139.738;2023-04-25T09:05:09;7.20;;;4.83;;
9413;SDS011;4746;35.664;139.738;2023-04-25T09:07:39;9.20;;;5.20;;
9413;SDS011;4746;35.664;139.738;2023-04-25T09:10:07;8.20;;;4.83;;
9413;SDS011;4746;35.664;139.738;2023-04-25T09:12:35;6.67;;;5.77;;
9413;SDS011;4746;35.664;139.738;2023-04-25T09:15:10;6.17;;;4.50;;
9413;SDS011;4746;35.664;139.738;2023-04-25T09:17:41;5.97;;;4.33;;
9413;SDS011;4746;35.664;139.738;2023-04-25T09:20:11;4.57;;;4.10;;
9413;SDS011;4746;35.664;139.738;2023-04-25T09:22:40;4.37;;;3.97;;
9413;SDS011;4746;35.664;139.738;2023-04-25T09:25:11;6.40;;;4.53;;
9413;SDS011;4746;35.664;139.738;2023-04-25T09:27:52;5.73;;;4.13;;
9413;SDS011;4746;35.664;139.738;2023-04-25T09:30:31;5.97;;;4.20;;
9413;SDS011;4746;35.664;139.738;2023-04-25T09:33:07;5.17;;;4.20;;
9413;SDS011;4746;35.664;139.738;2023-04-25T09:35:38;7.63;;;4.57;;
9413;SDS011;4746;35.664;139.738;2023-04-25T09:38:10;8.40;;;4.00;;
9413;SDS011;4746;35.664;139.738;2023-04-25T09:40:44;6.67;;;4.17;;
9413;SDS011;4746;35.664;139.738;2023-04-25T09:43:18;7.47;;;4.53;;
9413;SDS011;4746;35.664;139.738;2023-04-25T09:45:54;4.70;;;4.23;;
9413;SDS011;4746;35.664;139.738;2023-04-25T09:48:26;7.97;;;4.23;;
9413;SDS011;4746;35.664;139.738;2023-04-25T09:51:04;5.20;;;4.27;;
9413;SDS011;4746;35.664;139.738;2023-04-25T09:53:38;4.30;;;3.90;;
9413;SDS011;4746;35.664;139.738;2023-04-25T09:56:15;8.40;;;4.17;;
9413;SDS011;4746;35.664;139.738;2023-04-25T09:58:42;8.40;;;4.80;;
9413;SDS011;4746;35.664;139.738;2023-04-25T10:01:12;6.67;;;4.60;;
9413;SDS011;4746;35.664;139.738;2023-04-25T10:03:42;7.37;;;4.33;;
9413;SDS011;4746;35.664;139.738;2023-04-25T10:06:19;9.40;;;4.23;;
9413;SDS011;4746;35.664;139.738;2023-04-25T10:08:52;8.07;;;4.60;;
9413;SDS011;4746;35.664;139.738;2023-04-25T10:11:22;5.47;;;4.30;;
9413;SDS011;4746;35.664;139.738;2023-04-25T10:13:53;6.50;;;4.37;;
9413;SDS011;4746;35.664;139.738;2023-04-25T10:16:25;5.87;;;5.20;;
9413;SDS011;4746;35.664;139.738;2023-04-25T10:18:57;7.60;;;4.83;;
9413;SDS011;4746;35.664;139.738;2023-04-25T10:21:25;8.13;;;4.90;;
9413;SDS011;4746;35.664;139.738;2023-04-25T10:23:59;6.47;;;4.67;;
9413;SDS011;4746;35.664;139.738;2023-04-25T10:26:28;8.20;;;4.97;;
9413;SDS011;4746;35.664;139.738;2023-04-25T10:28:57;7.40;;;5.50;;
9413;SDS011;4746;35.664;139.738;2023-04-25T10:31:29;6.13;;;5.53;;
9413;SDS011;4746;35.664;139.738;2023-04-25T10:33:57;10.20;;;5.33;;
9413;SDS011;4746;35.664;139.738;2023-04-25T10:36:27;7.30;;;4.40;;
9413;SDS011;4746;35.664;139.738;2023-04-25T10:38:58;7.20;;;4.95;;
9413;SDS011;4746;35.664;139.738;2023-04-25T10:41:47;9.73;;;4.73;;
9413;SDS011;4746;35.664;139.738;2023-04-25T10:44:26;6.97;;;4.00;;
9413;SDS011;4746;35.664;139.738;2023-04-25T10:46:56;7.73;;;5.13;;
9413;SDS011;4746;35.664;139.738;2023-04-25T10:49:32;7.07;;;5.23;;
9413;SDS011;4746;35.664;139.738;2023-04-25T10:52:12;7.33;;;4.43;;
9413;SDS011;4746;35.664;139.738;2023-04-25T10:54:49;5.70;;;4.77;;
9413;SDS011;4746;35.664;139.738;2023-04-25T10:57:27;4.60;;;3.97;;
9413;SDS011;4746;35.664;139.738;2023-04-25T11:00:19;10.70;;;5.40;;
9413;SDS011;4746;35.664;139.738;2023-04-25T11:02:52;7.77;;;4.63;;
9413;SDS011;4746;35.664;139.738;2023-04-25T11:08:02;6.77;;;4.30;;
9413;SDS011;4746;35.664;139.738;2023-04-25T11:10:39;6.10;;;4.70;;
9413;SDS011;4746;35.664;139.738;2023-04-25T11:13:07;7.13;;;4.30;;
9413;SDS011;4746;35.664;139.738;2023-04-25T11:15:35;7.20;;;4.73;;
9413;SDS011;4746;35.664;139.738;2023-04-25T11:18:03;6.63;;;4.50;;
9413;SDS011;4746;35.664;139.738;2023-04-25T11:20:31;4.70;;;4.17;;
9413;SDS011;4746;35.664;139.738;2023-04-25T11:22:59;7.93;;;4.33;;
9413;SDS011;4746;35.664;139.738;2023-04-25T11:25:26;6.43;;;5.00;;
9413;SDS011;4746;35.664;139.738;2023-04-25T11:27:56;4.77;;;4.37;;
9413;SDS011;4746;35.664;139.738;2023-04-25T11:30:26;6.20;;;4.13;;
9413;SDS011;4746;35.664;139.738;2023-04-25T11:32:56;4.83;;;4.33;;
9413;SDS011;4746;35.664;139.738;2023-04-25T11:35:24;5.33;;;4.83;;
9413;SDS011;4746;35.664;139.738;2023-04-25T11:37:52;8.63;;;5.27;;
9413;SDS011;4746;35.664;139.738;2023-04-25T11:40:19;7.17;;;4.30;;
9413;SDS011;4746;35.664;139.738;2023-04-25T11:42:47;6.17;;;4.40;;
9413;SDS011;4746;35.664;139.738;2023-04-25T11:45:15;8.33;;;4.40;;
9413;SDS011;4746;35.664;139.738;2023-04-25T11:47:44;5.90;;;5.07;;
9413;SDS011;4746;35.664;139.738;2023-04-25T11:50:11;6.47;;;4.90;;
9413;SDS011;4746;35.664;139.738;2023-04-25T11:52:41;8.10;;;4.80;;
9413;SDS011;4746;35.664;139.738;2023-04-25T11:55:14;5.43;;;4.20;;
9413;SDS011;4746;35.664;139.738;2023-04-25T11:57:45;5.57;;;4.67;;
9413;SDS011;4746;35.664;139.738;2023-04-25T12:00:17;10.80;;;5.00;;
9413;SDS011;4746;35.664;139.738;2023-04-25T12:02:48;6.37;;;4.63;;
9413;SDS011;4746;35.664;139.738;2023-04-25T12:05:27;5.30;;;4.37;;
9413;SDS011;4746;35.664;139.738;2023-04-25T12:08:09;6.87;;;4.60;;
9413;SDS011;4746;35.664;139.738;2023-04-25T12:10:38;6.57;;;4.03;;
9413;SDS011;4746;35.664;139.738;2023-04-25T12:13:17;5.47;;;4.83;;
9413;SDS011;4746;35.664;139.738;2023-04-25T12:15:56;6.13;;;4.60;;
9413;SDS011;4746;35.664;139.738;2023-04-25T12:18:26;6.33;;;4.47;;
9413;SDS011;4746;35.664;139.738;2023-04-25T12:20:53;5.97;;;4.50;;
9413;SDS011;4746;35.664;139.738;2023-04-25T12:23:27;7.23;;;5.53;;
9413;SDS011;4746;35.664;139.738;2023-04-25T12:25:55;10.13;;;5.60;;
9413;SDS011;4746;35.664;139.738;2023-04-25T12:28:24;6.03;;;5.07;;
9413;SDS011;4746;35.664;139.738;2023-04-25T12:33:30;7.63;;;4.87;;
9413;SDS011;4746;35.664;139.738;2023-04-25T12:36:00;6.03;;;4.90;;
9413;SDS011;4746;35.664;139.738;2023-04-25T12:38:40;6.97;;;4.43;;
9413;SDS011;4746;35.664;139.738;2023-04-25T12:41:09;6.57;;;4.47;;
9413;SDS011;4746;35.664;139.738;2023-04-25T12:43:36;8.97;;;5.07;;
9413;SDS011;4746;35.664;139.738;2023-04-25T12:46:04;6.40;;;4.87;;
9413;SDS011;4746;35.664;139.738;2023-04-25T12:48:32;7.10;;;4.63;;
9413;SDS011;4746;35.664;139.738;2023-04-25T12:50:59;5.00;;;4.47;;
9413;SDS011;4746;35.664;139.738;2023-04-25T12:53:27;7.03;;;5.03;;
9413;SDS011;4746;35.664;139.738;2023-04-25T12:55:55;7.87;;;4.80;;
9413;SDS011;4746;35.664;139.738;2023-04-25T12:58:22;9.27;;;4.93;;
9413;SDS011;4746;35.664;139.738;2023-04-25T13:00:50;7.87;;;5.50;;
9413;SDS011;4746;35.664;139.738;2023-04-25T13:03:17;7.50;;;4.73;;
9413;SDS011;4746;35.664;139.738;2023-04-25T13:05:45;5.33;;;4.50;;
9413;SDS011;4746;35.664;139.738;2023-04-25T13:08:13;7.53;;;4.97;;
9413;SDS011;4746;35.664;139.738;2023-04-25T13:10:42;10.23;;;5.57;;
9413;SDS011;4746;35.664;139.738;2023-04-25T13:13:10;7.20;;;4.93;;
9413;SDS011;4746;35.664;139.738;2023-04-25T13:15:39;8.27;;;5.10;;
9413;SDS011;4746;35.664;139.738;2023-04-25T13:18:06;6.03;;;4.70;;
9413;SDS011;4746;35.664;139.738;2023-04-25T13:20:34;7.37;;;4.53;;
9413;SDS011;4746;35.664;139.738;2023-04-25T13:23:01;9.37;;;4.77;;
9413;SDS011;4746;35.664;139.738;2023-04-25T13:25:29;5.50;;;4.90;;
9413;SDS011;4746;35.664;139.738;2023-04-25T13:27:56;7.83;;;4.70;;
9413;SDS011;4746;35.664;139.738;2023-04-25T13:30:24;7.53;;;5.30;;
9413;SDS011;4746;35.664;139.738;2023-04-25T13:32:51;8.43;;;4.80;;
9413;SDS011;4746;35.664;139.738;2023-04-25T13:35:22;6.43;;;5.17;;
9413;SDS011;4746;35.664;139.738;2023-04-25T13:37:50;7.23;;;4.93;;
9413;SDS011;4746;35.664;139.738;2023-04-25T13:40:18;8.60;;;4.80;;
9413;SDS011;4746;35.664;139.738;2023-04-25T13:42:45;7.93;;;5.10;;
9413;SDS011;4746;35.664;139.738;2023-04-25T13:45:13;6.03;;;4.83;;
9413;SDS011;4746;35.664;139.738;2023-04-25T13:47:40;7.33;;;4.63;;
9413;SDS011;4746;35.664;139.738;2023-04-25T13:50:08;8.67;;;4.93;;
9413;SDS011;4746;35.664;139.738;2023-04-25T13:52:36;6.53;;;4.93;;
9413;SDS011;4746;35.664;139.738;2023-04-25T13:55:03;8.90;;;5.50;;
9413;SDS011;4746;35.664;139.738;2023-04-25T13:57:32;7.73;;;5.33;;
9413;SDS011;4746;35.664;139.738;2023-04-25T14:00:03;6.30;;;4.90;;
9413;SDS011;4746;35.664;139.738;2023-04-25T14:02:36;9.37;;;5.40;;
9413;SDS011;4746;35.664;139.738;2023-04-25T14:05:04;7.97;;;5.00;;
9413;SDS011;4746;35.664;139.738;2023-04-25T14:07:33;7.80;;;5.03;;
9413;SDS011;4746;35.664;139.738;2023-04-25T14:10:01;6.17;;;4.70;;
9413;SDS011;4746;35.664;139.738;2023-04-25T14:12:30;8.60;;;5.27;;
9413;SDS011;4746;35.664;139.738;2023-04-25T14:15:00;7.07;;;5.30;;
9413;SDS011;4746;35.664;139.738;2023-04-25T14:17:28;8.27;;;4.33;;
9413;SDS011;4746;35.664;139.738;2023-04-25T14:19:55;6.97;;;4.83;;
9413;SDS011;4746;35.664;139.738;2023-04-25T14:22:23;5.97;;;4.63;;
9413;SDS011;4746;35.664;139.738;2023-04-25T14:24:51;7.57;;;4.87;;
9413;SDS011;4746;35.664;139.738;2023-04-25T14:27:18;10.63;;;5.50;;
9413;SDS011;4746;35.664;139.738;2023-04-25T14:29:46;9.03;;;4.93;;
9413;SDS011;4746;35.664;139.738;2023-04-25T14:32:13;10.37;;;5.00;;
9413;SDS011;4746;35.664;139.738;2023-04-25T14:34:41;6.20;;;4.70;;
9413;SDS011;4746;35.664;139.738;2023-04-25T14:37:09;8.50;;;4.70;;
9413;SDS011;4746;35.664;139.738;2023-04-25T14:39:36;6.10;;;4.30;;
9413;SDS011;4746;35.664;139.738;2023-04-25T14:42:04;6.13;;;5.27;;
9413;SDS011;4746;35.664;139.738;2023-04-25T14:44:31;7.57;;;4.87;;
9413;SDS011;4746;35.664;139.738;2023-04-25T14:46:59;9.07;;;4.60;;
9413;SDS011;4746;35.664;139.738;2023-04-25T14:49:26;6.37;;;5.07;;
9413;SDS011;4746;35.664;139.738;2023-04-25T14:51:54;7.70;;;4.90;;
9413;SDS011;4746;35.664;139.738;2023-04-25T14:54:21;6.27;;;4.70;;
9413;SDS011;4746;35.664;139.738;2023-04-25T14:56:49;7.50;;;4.73;;
9413;SDS011;4746;35.664;139.738;2023-04-25T14:59:16;9.33;;;5.10;;
9413;SDS011;4746;35.664;139.738;2023-04-25T15:01:45;6.50;;;4.87;;
9413;SDS011;4746;35.664;139.738;2023-04-25T15:04:13;8.30;;;4.43;;